Lester B. Pearson International Airport

CYYZ · Ontario, Kanada

7. Oktober 2022

Uhrzeit Code Wetter Temp. Sichtweite Wolkendecke Wind METAR/SPECI
05:00
V
12 °C 15 mi 10.000 ft 330° 330° 16 - 21 kt METAR CYYZ 070900Z 33016G21KT 15SM FEW025 SCT060 BKN100 12/07 A2995 RMK CF2SC1AC4 SLP144
04:12
V
12 °C 15 mi 8.000 ft 320° 320° 15 kt METAR CYYZ 070812Z 32015KT 15SM SCT028 BKN080 12/10 A2995 RMK SC4AC3 SLP142
04:00
V
12 °C 15 mi 8.000 ft 320° 320° 16 kt METAR CYYZ 070800Z 32016KT 15SM -RA SCT022 BKN080 12/10 A2994 RMK SC3AC4 SLP141
03:52
V
13 °C 15 mi 8.300 ft 310° 310° 13 kt METAR CYYZ 070752Z 31013KT 15SM -RA SCT025 BKN083 13/10 A2994 RMK SC3AC4 SLP140
03:00
V
13 °C 15 mi 7.000 ft 320° 320° 16 kt METAR CYYZ 070700Z 32016KT 15SM SCT030 BKN070 13/09 A2992 RMK SC3AC4 SLP134
02:49
V
13 °C 15 mi 6.300 ft 320° 320° 15 kt METAR CYYZ 070649Z 32015KT 15SM SCT024 BKN063 13/09 A2992 RMK SC3SC4 SLP135
02:00
V
13 °C 12 mi 7.000 ft 300° 300° 14 kt METAR CYYZ 070600Z 30014KT 12SM -RA FEW020 SCT040 OVC070 13/10 A2991 RMK CF1SC2AC5 SLP130 DENSITY ALT 600FT
01:48
V
14 °C 15 mi 6.800 ft 310° 310° 14 - 20 kt METAR CYYZ 070548Z 31014G20KT 15SM -RA FEW021 BKN068 OVC100 14/10 A2991 RMK CF1AC6AC1 SLP131 DENSITY ALT 700FT
01:00
V
15 °C 15 mi 10.000 ft 300° 300° 18 - 27 kt METAR CYYZ 070500Z 30018G27KT 15SM FEW021 SCT079 BKN100 15/11 A2990 RMK CF1AC2AC4 SLP127 DENSITY ALT 800FT
00:00
V
17 °C 15 mi 10.000 ft 280° 280° 10 kt METAR CYYZ 070400Z 28010KT 15SM BKN100 BKN160 17/10 A2989 RMK AC5AC2 SLP121 DENSITY ALT 1000FT

6. Oktober 2022

Uhrzeit Code Wetter Temp. Sichtweite Wolkendecke Wind METAR/SPECI
23:17
V
17 °C 15 mi 10.000 ft 270° 270° 7 kt METAR CYYZ 070317Z 27007KT 15SM BKN100 BKN140 17/09 A2989 RMK AC5AC2 SLP122 DENSITY ALT 1000FT
23:00
V
17 °C 15 mi 8.700 ft 260° 260° 7 kt METAR CYYZ 070300Z 26007KT 15SM -RA BKN087 BKN120 17/09 A2989 RMK AC5AC2 SLP123 DENSITY ALT 1000FT
22:51
V
17 °C 15 mi 9.500 ft 260° 260° 8 kt METAR CYYZ 070251Z 26008KT 15SM -RA BKN095 BKN140 17/09 A2989 RMK AC5AC2 SLP124 DENSITY ALT 1000FT
22:00
V
18 °C 15 mi 13.000 ft 230° 230° 8 kt METAR CYYZ 070200Z 23008KT 15SM BKN130 BKN170 18/09 A2989 RMK AC5AC2 SLP122 DENSITY ALT 1100FT
21:00
V
18 °C 15 mi 14.000 ft 230° 230° 11 kt METAR CYYZ 070100Z 23011KT 15SM BKN140 BKN180 18/08 A2989 RMK AC5AC1 SLP123 DENSITY ALT 1200FT
20:00
V
20 °C 15 mi 13.000 ft 210° 210° 9 kt METAR CYYZ 070000Z 21009KT 15SM BKN130 BKN170 BKN250 20/07 A2989 RMK AC5AC1CI1 SLP123 DENSITY ALT 1400FT
19:00
V
21 °C 15 mi 14.000 ft 200° 200° 7 kt METAR CYYZ 062300Z 20007KT 15SM FEW110 BKN140 BKN250 21/05 A2988 RMK AC1AC5CI1 SLP121 DENSITY ALT 1500FT
18:00
V
22 °C 15 mi 16.000 ft 230° 230° 9 kt METAR CYYZ 062200Z 23009KT 15SM SCT100 BKN160 22/04 A2989 RMK AC3AC4 SLP122 DENSITY ALT 1600FT
17:00
V
23 °C 15 mi 16.000 ft 220° 220° 9 kt METAR CYYZ 062100Z 22009KT 15SM FEW100 FEW140 BKN160 23/05 A2989 RMK AC1AC1AC7 AC TR AC TR SLP123 DENSITY ALT 1700FT
16:00
V
23 °C 15 mi 15.000 ft 260° 260° 9 kt METAR CYYZ 062000Z 26009KT 15SM FEW090 BKN150 23/05 A2989 RMK AC1AC7 AC TR SLP122 DENSITY ALT 1700FT
15:00
V
22 °C 15 mi 15.000 ft 220° 220° 8 kt METAR CYYZ 061900Z 22008KT 15SM FEW060 FEW090 BKN150 22/06 A2990 RMK CF1AC1AC6 CF TR SLP128 DENSITY ALT 1600FT
14:00
V
22 °C 15 mi 17.000 ft 240° 240° 11 kt METAR CYYZ 061800Z 24011KT 15SM SCT095 BKN170 22/05 A2991 RMK AC4AC3 SLP131 DENSITY ALT 1600FT
13:00
V
23 °C 15 mi 17.000 ft 220° 220° 11 kt METAR CYYZ 061700Z 22011KT 190V250 15SM SCT100 BKN170 23/08 A2993 RMK AC3AC4 SLP137 DENSITY ALT 1600FT
12:00
V
22 °C 15 mi 16.000 ft 220° 220° 8 kt METAR CYYZ 061600Z 22008KT 170V240 15SM SCT100 BKN160 22/09 A2994 RMK AC4AC3 SLP139 DENSITY ALT 1500FT
11:00
V
20 °C 15 mi 25.000 ft 210° 210° 3 kt METAR CYYZ 061500Z 21003KT 160V270 15SM FEW110 BKN250 20/10 A2995 RMK AC2CS5 SLP144 DENSITY ALT 1300FT
10:00
V
18 °C 15 mi 10.000 ft 240° 240° 6 kt METAR CYYZ 061400Z 24006KT 15SM VCSH BKN100 BKN160 18/10 A2996 RMK AC5AC2 SH W-N SLP146 DENSITY ALT 1100FT
09:20
V
16 °C 15 mi 11.000 ft 240° 240° 3 kt METAR CYYZ 061320Z 24003KT 15SM BKN110 BKN140 16/13 A2996 RMK AC5AC2 SLP149 DENSITY ALT 800FT
09:00
V
16 °C 15 mi 11.000 ft 260° 260° 6 kt METAR CYYZ 061300Z 26006KT 15SM -RA BKN110 BKN140 16/12 A2996 RMK AC7AC1 AC TR SLP149 DENSITY ALT 800FT
08:37
V
15 °C 15 mi 11.000 ft 280° 280° 4 kt METAR CYYZ 061237Z 28004KT 15SM -RA BKN110 15/13 A2996 RMK AC7 SLP148 DENSITY ALT 700FT
08:23
V
15 °C 15 mi 11.000 ft 260° 260° 6 kt METAR CYYZ 061223Z 26006KT 15SM BKN110 15/13 A2996 RMK AC7 SLP149 DENSITY ALT 700FT
08:00
V
15 °C 15 mi 11.000 ft 240° 240° 4 kt METAR CYYZ 061200Z 24004KT 15SM -RA BKN110 15/12 A2996 RMK AC7 SLP149 DENSITY ALT 700FT
07:24
V
14 °C 15 mi 10.000 ft 260° 260° 5 kt METAR CYYZ 061124Z CCA 26005KT 15SM -RA BKN100 BKN160 14/13 A2996 RMK AC7AC1 AC TR SLP149 DENSITY ALT 600FT
07:00
V
14 °C 15 mi 10.000 ft 260° 260° 4 kt METAR CYYZ 061100Z 26004KT 15SM BKN100 BKN160 14/12 A2996 RMK AC7AC1 AC TR SLP148 DENSITY ALT 600FT
06:00
V
15 °C 15 mi 11.000 ft 250° 250° 2 kt METAR CYYZ 061000Z 25002KT 15SM -RA BKN110 BKN140 15/11 A2996 RMK AC5AC2 SLP149 DENSITY ALT 700FT
05:37
V
14 °C 15 mi 14.000 ft 270° 270° 3 kt METAR CYYZ 060937Z 27003KT 15SM -RA SCT100 BKN140 14/12 A2996 RMK AC3AC4 SLP149
05:00
V
14 °C 15 mi 16.000 ft 250° 250° 3 kt METAR CYYZ 060900Z 25003KT 15SM SCT120 BKN160 14/10 A2997 RMK AC3AC3 SLP150
04:00
V
15 °C 15 mi 17.000 ft 240° 240° 5 kt METAR CYYZ 060800Z 24005KT 15SM FEW130 BKN170 15/10 A2997 RMK AC1AC5 SLP150 DENSITY ALT 700FT
03:00
V
13 °C 15 mi 16.000 ft 260° 260° 5 kt METAR CYYZ 060700Z 26005KT 15SM SCT120 BKN160 13/11 A2998 RMK AC3AC3 SLP153
02:00
V
14 °C 15 mi 15.000 ft 260° 260° 3 kt METAR CYYZ 060600Z 26003KT 15SM BKN150 BKN250 14/10 A2998 RMK AC5CI1 SLP154
01:00
V
15 °C 15 mi - 340° 340° 3 kt METAR CYYZ 060500Z 34003KT 15SM SCT150 SCT250 15/10 A2998 RMK AC3CI1 SLP153 DENSITY ALT 700FT
00:00
V
16 °C 15 mi - 320° 320° 6 kt METAR CYYZ 060400Z 32006KT 15SM FEW150 SCT240 16/10 A2999 RMK AC2CI2 SLP159 DENSITY ALT 700FT

5. Oktober 2022

Uhrzeit Code Wetter Temp. Sichtweite Wolkendecke Wind METAR/SPECI
23:00
V
17 °C 15 mi - Var 000° 0 kt METAR CYYZ 060300Z 00000KT 15SM SCT240 17/09 A3000 RMK CI3 SLP160 DENSITY ALT 800FT
22:00
V
17 °C 15 mi - 280° 280° 3 kt METAR CYYZ 060200Z 28003KT 15SM SCT250 17/08 A3000 RMK CI3 SLP160 DENSITY ALT 900FT
21:00
V
17 °C 15 mi - Var Var 2 kt METAR CYYZ 060100Z VRB02KT 15SM SCT250 17/09 A3000 RMK CI3 SLP162 DENSITY ALT 900FT
20:00
V
18 °C 15 mi - 130° 130° 2 kt METAR CYYZ 060000Z 13002KT 15SM SCT250 18/08 A3000 RMK CI3 SLP163 DENSITY ALT 1000FT
19:00
V
18 °C 15 mi - 140° 140° 3 kt METAR CYYZ 052300Z 14003KT 15SM FEW150 SCT250 18/08 A3000 RMK AC1CI3 AC TR SLP162 DENSITY ALT 1000FT
18:00
V
20 °C 15 mi - 150° 150° 7 kt METAR CYYZ 052200Z 15007KT 15SM FEW250 20/06 A2999 RMK CI1 CONTRAILS SLP160 DENSITY ALT 1200FT
17:00
V
21 °C 15 mi - 140° 140° 8 kt METAR CYYZ 052100Z 14008KT 15SM FEW250 21/03 A3000 RMK CI1 CI TR SLP160 DENSITY ALT 1400FT
16:00
V
21 °C 15 mi - 140° 140° 7 kt METAR CYYZ 052000Z 14007KT 15SM FEW250 21/07 A3000 RMK CI1 CI TR SLP163 DENSITY ALT 1400FT
15:00
V
22 °C 15 mi - 130° 130° 7 kt METAR CYYZ 051900Z 13007KT 15SM FEW250 22/09 A3002 RMK CI1 CI TR SLP167 DENSITY ALT 1400FT
14:00
V
20 °C 15 mi - 140° 140° 7 kt METAR CYYZ 051800Z 14007KT 15SM FEW250 20/09 A3003 RMK CI1 CI TR SLP174 DENSITY ALT 1200FT
13:00
V
21 °C 15 mi - 310° 310° 4 kt METAR CYYZ 051700Z 31004KT 260V020 15SM FEW250 21/05 A3005 RMK CI1 CI TR SLP179 DENSITY ALT 1300FT
12:00
V
20 °C 15 mi - Var Var 3 kt METAR CYYZ 051600Z VRB03KT 15SM FEW250 20/03 A3007 RMK CI1 CI TR SLP185 DENSITY ALT 1100FT
11:00
V
18 °C 15 mi - 360° 360° 3 kt METAR CYYZ 051500Z 36003KT 300V060 15SM FEW250 18/07 A3008 RMK CI1 CI TR SLP189 DENSITY ALT 900FT
10:00
V
15 °C 15 mi - 360° 360° 5 kt METAR CYYZ 051400Z 36005KT 330V030 15SM FEW250 15/06 A3009 RMK CI1 CI TR SLP192 DENSITY ALT 600FT
09:00
V
13 °C 15 mi - 320° 320° 4 kt METAR CYYZ 051300Z 32004KT 15SM SKC 13/05 A3009 RMK SLP192
08:00
V
9 °C 15 mi - 310° 310° 3 kt METAR CYYZ 051200Z 31003KT 15SM SKC 09/06 A3008 RMK SLP191
07:00
V
9 °C 15 mi - Var 000° 0 kt METAR CYYZ 051100Z 00000KT 15SM SKC 09/06 A3008 RMK SLP189
06:00
V
9 °C 15 mi - 320° 320° 4 kt METAR CYYZ 051000Z 32004KT 15SM FEW180 09/05 A3006 RMK AS1 SLP184
05:00
V
10 °C 15 mi - 310° 310° 4 kt METAR CYYZ 050900Z 31004KT 15SM SKC 10/04 A3006 RMK SLP184
Ältere Daten

Wir und Dritte verfolgen dein Internetverhalten auf unserer Website mit Cookies. Wenn du fortfährst, gehen wir davon aus, dass du mit unserer Cookie-Richtlinie einverstanden bist. Mehr erfahren